Time;durP1;ratioP1;P1;durP2;ratioP2;P2;SDS_P1;SDS_P2;PMS_P1;PMS_P2;Temp;Humidity;BMP_temperature;BMP_pressure;BME280_temperature;BME280_humidity;BME280_pressure;Samples;Min_cycle;Max_cycle;Signal;HPM_P1;HPM_P2
2022/05/03 13:00:51;;;;;;;8.17;2.47;;;17.90;51.10;;;;;;12359493;23;20301;-82
2022/05/03 13:05:54;;;;;;;2.73;1.40;;;18.10;50.10;;;;;;12749649;23;20522;-82
2022/05/03 13:10:57;;;;;;;2.47;1.53;;;18.20;50.80;;;;;;12738682;23;20704;-82
2022/05/03 13:16:00;;;;;;;3.03;1.27;;;17.80;50.10;;;;;;12712639;23;20566;-83
2022/05/03 13:21:03;;;;;;;3.60;0.90;;;18.00;56.30;;;;;;12705764;23;20179;-83
2022/05/03 13:26:05;;;;;;;4.83;2.70;;;18.20;47.90;;;;;;12728661;23;20212;-84
2022/05/03 13:31:08;;;;;;;1.57;0.50;;;18.90;57.80;;;;;;12703646;23;20180;-84
2022/05/03 13:41:32;;;;;;;1.60;0.80;;;19.10;50.10;;;;;;12704152;23;20180;-85
2022/05/03 13:46:35;;;;;;;1.47;1.00;;;18.60;46.90;;;;;;12705159;23;20184;-85
2022/05/03 13:51:37;;;;;;;2.77;0.87;;;19.20;54.90;;;;;;12681605;23;20180;-83
2022/05/03 13:56:40;;;;;;;1.33;0.90;;;19.50;54.20;;;;;;12730640;23;20192;-83
2022/05/03 14:01:43;;;;;;;4.13;0.70;;;18.40;47.20;;;;;;12744625;23;20193;-83
2022/05/03 14:06:46;;;;;;;3.63;0.97;;;18.20;47.50;;;;;;12731555;23;20223;-84
2022/05/03 14:11:49;;;;;;;1.80;0.93;;;18.00;47.80;;;;;;12722222;23;20227;-85
2022/05/03 14:16:52;;;;;;;3.83;1.50;;;;;;;;;;12724834;23;20188;-83
2022/05/03 14:21:55;;;;;;;2.05;1.17;;;20.30;45.90;;;;;;12699653;23;20228;-83
2022/05/03 14:26:57;;;;;;;4.40;1.20;;;20.20;49.90;;;;;;12699965;23;20239;-83
2022/05/03 14:32:00;;;;;;;1.27;0.80;;;20.10;55.20;;;;;;12699404;23;20492;-83
2022/05/03 14:37:03;;;;;;;1.40;0.80;;;19.50;48.00;;;;;;12726118;23;20696;-84
2022/05/03 14:42:06;;;;;;;1.07;0.60;;;19.50;49.40;;;;;;12701273;23;20235;-84
2022/05/03 14:47:09;;;;;;;1.27;0.70;;;19.10;45.70;;;;;;12737096;23;20176;-84
2022/05/03 14:52:16;;;;;;;14.10;1.13;;;18.80;48.60;;;;;;12725730;23;20191;-84
2022/05/03 15:02:54;;;;;;;1.83;1.40;;;18.30;52.70;;;;;;12699669;23;20200;-85
2022/05/03 15:07:59;;;;;;;4.20;1.20;;;18.90;56.00;;;;;;12746514;23;20254;-85
2022/05/03 15:13:05;;;;;;;1.77;1.30;;;18.90;58.10;;;;;;12705194;23;20182;-84
2022/05/03 15:18:07;;;;;;;3.60;1.03;;;19.40;59.30;;;;;;12731191;23;20185;-85
2022/05/03 15:28:33;;;;;;;2.27;1.07;;;18.50;50.40;;;;;;12749188;23;20507;-85
2022/05/03 15:33:35;;;;;;;2.20;1.10;;;17.60;50.90;;;;;;12729613;23;20227;-85
2022/05/03 15:38:38;;;;;;;3.53;1.00;;;17.90;54.70;;;;;;12701499;23;20235;-85
2022/05/03 15:43:40;;;;;;;1.67;0.97;;;17.80;52.60;;;;;;12703311;23;20169;-85
2022/05/03 15:48:43;;;;;;;1.30;0.80;;;17.90;56.30;;;;;;12728026;23;20172;-85
2022/05/03 15:53:45;;;;;;;2.70;0.80;;;17.80;52.60;;;;;;12728405;23;20792;-84
2022/05/03 15:58:47;;;;;;;7.47;3.73;;;16.70;54.00;;;;;;12729484;23;20584;-85
2022/05/03 16:03:50;;;;;;;2.80;0.87;;;16.60;54.80;;;;;;12714873;23;20192;-85
2022/05/03 16:08:53;;;;;;;3.13;1.13;;;16.50;54.40;;;;;;12725179;23;20184;-85
2022/05/03 16:13:57;;;;;;;2.00;0.90;;;16.80;55.40;;;;;;12727315;23;20176;-85
2022/05/03 16:18:59;;;;;;;6.20;1.67;;;17.20;56.20;;;;;;12727146;23;20531;-85
2022/05/03 16:24:02;;;;;;;9.53;1.77;;;17.40;55.90;;;;;;12727094;23;20164;-85
2022/05/03 16:29:04;;;;;;;2.33;1.67;;;17.20;57.80;;;;;;12743936;23;20223;-85
2022/05/03 16:34:07;;;;;;;2.83;1.10;;;17.70;52.90;;;;;;12727584;23;20183;-85
2022/05/03 16:44:31;;;;;;;2.13;0.97;;;17.50;57.00;;;;;;12733065;23;20169;-85
2022/05/03 16:49:37;;;;;;;1.77;1.20;;;17.30;56.70;;;;;;12755322;23;20179;-85
2022/05/03 16:54:40;;;;;;;3.40;1.10;;;17.10;57.00;;;;;;12749671;23;20222;-86
2022/05/03 16:59:43;;;;;;;7.03;2.03;;;17.20;55.30;;;;;;12731254;23;20247;-86
2022/05/03 17:04:46;;;;;;;2.60;1.20;;;16.70;58.00;;;;;;12729469;23;20200;-85
2022/05/03 17:09:49;;;;;;;2.13;1.07;;;16.50;57.20;;;;;;12731063;23;20230;-85
2022/05/03 17:14:52;;;;;;;1.90;1.53;;;16.10;58.30;;;;;;12729553;23;20647;-85
2022/05/03 17:19:56;;;;;;;2.50;1.80;;;15.90;65.10;;;;;;12729088;23;20507;-85
2022/05/03 17:25:02;;;;;;;2.80;1.03;;;16.00;59.10;;;;;;12772000;23;20191;-85
2022/05/03 17:30:08;;;;;;;3.03;1.00;;;16.20;62.50;;;;;;12732207;23;20223;-85
2022/05/03 17:35:11;;;;;;;1.73;1.50;;;16.40;66.00;;;;;;12728847;23;20181;-85
2022/05/03 17:40:14;;;;;;;1.57;1.10;;;16.20;59.80;;;;;;12729705;23;20203;-85
2022/05/03 17:45:16;;;;;;;20.03;4.07;;;16.00;61.70;;;;;;12732501;23;20216;-85
2022/05/03 17:50:19;;;;;;;2.77;1.00;;;15.90;61.80;;;;;;12749938;23;20199;-85
2022/05/03 17:55:22;;;;;;;2.40;1.10;;;16.50;66.50;;;;;;12731119;23;20227;-86
2022/05/03 18:00:25;;;;;;;2.07;1.57;;;16.70;64.60;;;;;;12730871;23;20286;-85
2022/05/03 18:05:27;;;;;;;3.33;1.90;;;16.80;63.50;;;;;;12748405;23;20196;-85
2022/05/03 18:10:30;;;;;;;5.27;2.40;;;16.00;62.10;;;;;;12730501;23;20168;-85
2022/05/03 18:15:33;;;;;;;6.80;2.47;;;16.20;62.80;;;;;;12703363;23;20527;-86
2022/05/03 18:20:38;;;;;;;1.73;1.63;;;16.60;62.10;;;;;;12729249;23;20748;-85
2022/05/03 18:25:40;;;;;;;1.47;0.90;;;16.60;65.00;;;;;;12743589;23;20250;-85
2022/05/03 18:30:43;;;;;;;2.53;0.57;;;16.40;67.00;;;;;;12730386;23;20231;-84
2022/05/03 18:35:47;;;;;;;0.93;0.73;;;16.90;66.00;;;;;;12730855;23;20305;-85
2022/05/03 18:40:51;;;;;;;1.60;0.90;;;17.10;65.20;;;;;;12729931;23;20189;-84
2022/05/03 18:45:54;;;;;;;0.80;0.60;;;17.20;65.20;;;;;;12724510;23;20544;-84
2022/05/03 18:50:58;;;;;;;3.13;2.37;;;17.20;65.20;;;;;;12695823;23;20212;-84
2022/05/03 18:56:01;;;;;;;1.60;1.40;;;16.50;63.60;;;;;;12701934;23;20168;-84
2022/05/03 19:01:04;;;;;;;0.73;0.60;;;16.50;65.80;;;;;;12700040;23;20208;-84
2022/05/03 19:06:07;;;;;;;2.73;1.60;;;16.50;66.60;;;;;;12703921;23;20523;-84
2022/05/03 19:11:11;;;;;;;3.07;1.10;;;16.10;66.30;;;;;;12728183;23;20259;-84
2022/05/03 19:16:14;;;;;;;0.80;0.80;;;16.00;67.50;;;;;;12679919;23;20231;-85
2022/05/03 19:21:17;;;;;;;4.40;1.37;;;15.90;67.90;;;;;;12703999;23;20799;-85
2022/05/03 19:31:41;;;;;;;0.97;0.87;;;15.10;67.40;;;;;;12743299;23;20562;-85
2022/05/03 19:36:44;;;;;;;0.97;0.70;;;14.80;69.80;;;;;;12701189;23;20246;-85
2022/05/03 19:41:47;;;;;;;5.83;1.80;;;15.00;70.70;;;;;;12729377;23;20172;-85
2022/05/03 19:46:49;;;;;;;3.00;2.53;;;14.80;68.20;;;;;;12703658;23;20176;-84
2022/05/03 19:51:52;;;;;;;5.37;2.43;;;14.00;67.80;;;;;;12702122;23;20202;-85
2022/05/03 19:56:55;;;;;;;5.13;1.80;;;13.70;70.60;;;;;;12746626;23;20168;-85
2022/05/03 20:01:57;;;;;;;1.63;1.33;;;14.30;72.80;;;;;;12729975;23;20192;-84
2022/05/03 20:07:03;;;;;;;2.37;1.67;;;14.50;72.60;;;;;;12729749;23;20628;-85
2022/05/03 20:12:06;;;;;;;0.80;0.70;;;14.30;71.60;;;;;;12706624;23;20238;-85
2022/05/03 20:17:09;;;;;;;2.70;1.80;;;14.90;72.20;;;;;;12705650;23;20176;-85
2022/05/03 20:22:12;;;;;;;2.67;1.43;;;15.10;71.30;;;;;;12708288;23;20168;-86
2022/05/03 20:27:15;;;;;;;4.87;2.87;;;14.90;71.60;;;;;;12732023;23;20507;-85
2022/05/03 20:32:19;;;;;;;3.67;2.40;;;14.30;71.50;;;;;;12705226;23;20235;-86
2022/05/03 20:37:21;;;;;;;1.70;1.23;;;13.90;73.00;;;;;;12733104;23;20231;-86
2022/05/03 20:42:24;;;;;;;1.60;1.00;;;14.40;74.00;;;;;;12733075;23;20164;-85
2022/05/03 20:52:48;;;;;;;2.13;1.33;;;15.10;70.70;;;;;;12705108;23;20183;-85
2022/05/03 20:57:51;;;;;;;2.53;1.20;;;15.00;72.00;;;;;;12732835;23;20193;-85
2022/05/03 21:02:53;;;;;;;3.87;3.03;;;15.00;72.10;;;;;;12733077;23;20192;-85
2022/05/03 21:07:56;;;;;;;4.00;2.80;;;14.60;71.80;;;;;;12731757;23;20502;-85
2022/05/03 21:12:58;;;;;;;14.97;2.93;;;14.00;74.10;;;;;;12732622;23;20175;-84
2022/05/03 21:18:05;;;;;;;10.33;3.30;;;14.00;74.70;;;;;;12741752;23;20192;-85
2022/05/03 21:23:08;;;;;;;8.53;3.47;;;14.10;73.90;;;;;;12732779;23;20223;-85
2022/05/03 21:28:10;;;;;;;9.00;3.90;;;13.90;74.80;;;;;;12707348;23;20240;-84
2022/05/03 21:33:13;;;;;;;4.60;2.07;;;13.60;75.40;;;;;;12714668;23;20560;-85
2022/05/03 21:38:16;;;;;;;7.33;3.90;;;13.90;75.60;;;;;;12705242;23;20577;-85
2022/05/03 21:43:19;;;;;;;7.03;4.47;;;13.10;77.50;;;;;;12732687;23;20192;-85
2022/05/03 21:48:23;;;;;;;4.30;2.83;;;13.50;77.40;;;;;;12730957;23;20507;-85
2022/05/03 21:53:25;;;;;;;1.70;1.27;;;14.10;75.30;;;;;;12731417;23;20175;-85
2022/05/03 21:58:28;;;;;;;1.67;0.80;;;14.50;74.20;;;;;;12704798;23;20583;-85
2022/05/03 22:03:33;;;;;;;6.73;4.07;;;15.30;71.90;;;;;;12731891;23;20196;-85
2022/05/03 22:08:36;;;;;;;3.07;2.07;;;15.60;70.70;;;;;;12704737;23;20254;-85
2022/05/03 22:13:38;;;;;;;1.00;0.90;;;15.60;70.30;;;;;;12729225;23;20247;-85
2022/05/03 22:18:41;;;;;;;7.80;4.87;;;15.80;70.00;;;;;;12704803;23;20577;-84
2022/05/03 22:23:43;;;;;;;5.60;3.57;;;14.60;72.80;;;;;;12704926;23;20219;-85
2022/05/03 22:28:46;;;;;;;7.40;5.20;;;14.50;74.20;;;;;;12704874;23;20180;-85
2022/05/03 22:33:48;;;;;;;5.50;4.50;;;14.30;74.40;;;;;;12736290;23;20519;-85
2022/05/03 22:38:51;;;;;;;4.07;3.67;;;12.70;80.30;;;;;;12731482;23;20212;-85
2022/05/03 22:43:53;;;;;;;5.83;3.90;;;13.00;80.20;;;;;;12731614;23;20173;-84
2022/05/03 22:49:00;;;;;;;6.00;4.40;;;13.20;80.00;;;;;;12737599;23;20173;-85
2022/05/03 22:54:05;;;;;;;6.47;5.23;;;13.00;80.40;;;;;;12731336;23;20196;-87
2022/05/03 22:59:07;;;;;;;9.27;4.93;;;12.30;85.30;;;;;;12680881;23;20535;-87
2022/05/03 23:04:10;;;;;;;2.43;1.53;;;12.20;85.40;;;;;;12733915;23;20194;-86
2022/05/03 23:09:12;;;;;;;2.70;1.83;;;12.90;84.20;;;;;;12731352;23;20172;-87
2022/05/03 23:14:15;;;;;;;6.90;6.00;;;13.40;81.50;;;;;;12747557;23;20553;-87
2022/05/03 23:19:18;;;;;;;10.53;5.47;;;12.90;81.80;;;;;;12679903;23;20216;-86
2022/05/03 23:24:20;;;;;;;5.70;4.60;;;12.10;86.40;;;;;;12703979;23;20230;-87
2022/05/03 23:29:23;;;;;;;6.13;5.53;;;12.90;84.30;;;;;;12730941;23;20170;-87
2022/05/03 23:39:47;;;;;;;1.63;1.40;;;12.60;84.30;;;;;;12747108;23;20262;-87
2022/05/03 23:44:50;;;;;;;6.90;6.20;;;12.80;84.40;;;;;;12732971;23;20172;-86
2022/05/03 23:49:52;;;;;;;8.27;5.07;;;13.30;81.40;;;;;;12740084;23;20176;-86
2022/05/03 23:54:55;;;;;;;5.97;4.43;;;12.60;84.70;;;;;;12737308;23;20194;-87
2022/05/03 23:59:58;;;;;;;8.90;3.67;;;13.30;82.30;;;;;;12753362;23;20256;-87
